createdAt,value
2017-01-15T00:00:14.598Z,0.76
2017-01-15T00:01:30.216Z,0.76
2017-01-15T00:01:58.163Z,0.7
2017-01-15T00:03:26.992Z,0.86
2017-01-15T00:04:33.978Z,0.6
2017-01-15T00:05:17.097Z,0.75
2017-01-15T00:06:54.076Z,0.82
2017-01-15T00:07:17.156Z,0.96
2017-01-15T00:08:47.570Z,0.8
2017-01-15T00:09:55.535Z,0.71
2017-01-15T00:10:18.930Z,0.75
2017-01-15T00:11:56.315Z,0.68
2017-01-15T00:12:18.899Z,0.75
2017-01-15T00:13:40.510Z,0.83
2017-01-15T00:14:55.880Z,0.71
2017-01-15T00:15:25.175Z,0.68
2017-01-15T00:16:50.396Z,0.68
2017-01-15T00:17:25.033Z,0.79
2017-01-15T00:18:47.003Z,0.71
2017-01-15T00:20:01.740Z,0.71
2017-01-15T00:20:25.035Z,0.71
2017-01-15T00:21:58.773Z,0.64
2017-01-15T00:23:10.733Z,0.75
2017-01-15T00:24:22.361Z,0.7
2017-01-15T00:24:45.611Z,0.82
2017-01-15T00:26:02.394Z,0.65
2017-01-15T00:27:22.895Z,0.72
2017-01-15T00:28:23.223Z,0.68
2017-01-15T00:29:08.161Z,0.78
2017-01-15T00:30:45.087Z,0.65
2017-01-15T00:31:08.152Z,0.64
2017-01-15T00:32:37.715Z,0.76
2017-01-15T00:33:44.699Z,0.75
2017-01-15T00:34:22.693Z,0.72
2017-01-15T00:35:58.765Z,0.72
2017-01-15T00:36:36.353Z,0.76
2017-01-15T00:38:07.675Z,0.71
2017-01-15T00:39:28.136Z,0.57
2017-01-15T00:40:47.869Z,0.68
2017-01-15T00:41:48.056Z,0.58
2017-01-15T00:42:21.877Z,0.64
2017-01-15T00:43:58.897Z,0.6
2017-01-15T00:44:45.308Z,0.6
2017-01-15T00:45:42.337Z,0.62
2017-01-15T00:47:07.387Z,0.49
2017-01-15T00:47:30.705Z,0.52
2017-01-15T00:49:08.045Z,0.53
2017-01-15T00:50:23.807Z,0.49
2017-01-15T00:50:53.158Z,0.53
2017-01-15T00:52:27.572Z,0.61
2017-01-15T00:53:40.277Z,0.64
2017-01-15T00:54:45.843Z,0.58
2017-01-15T00:55:10.401Z,0.57
2017-01-15T00:56:26.016Z,0.68
2017-01-15T00:57:47.579Z,0.62
2017-01-15T00:58:47.838Z,0.58
2017-01-15T00:59:13.329Z,0.67
2017-01-15T01:00:34.964Z,0.6
2017-01-15T01:01:49.997Z,0.6
2017-01-15T01:02:36.635Z,0.64
2017-01-15T01:03:25.630Z,0.62
2017-01-15T01:04:48.120Z,0.65
2017-01-15T01:05:59.821Z,0.64
2017-01-15T01:06:22.759Z,0.65
2017-01-15T01:07:37.648Z,0.78
2017-01-15T01:08:57.443Z,0.79
2017-01-15T01:09:25.320Z,0.68
2017-01-15T01:10:42.539Z,0.8
2017-01-15T01:12:01.573Z,0.83
2017-01-15T01:13:02.293Z,0.8
2017-01-15T01:13:25.158Z,0.71
2017-01-15T01:14:39.016Z,0.83
2017-01-15T01:16:02.844Z,0.88
2017-01-15T01:16:25.163Z,0.85
2017-01-15T01:17:43.064Z,0.72
2017-01-15T01:19:02.438Z,0.68
2017-01-15T01:19:25.495Z,0.78
2017-01-15T01:20:56.043Z,0.68
2017-01-15T01:21:59.953Z,0.79
2017-01-15T01:22:25.159Z,0.75
2017-01-15T01:23:37.572Z,0.85
2017-01-15T01:24:48.913Z,0.82
2017-01-15T01:26:02.993Z,0.7
2017-01-15T01:26:25.151Z,0.64
2017-01-15T01:27:25.209Z,0.72
2017-01-15T01:28:42.837Z,0.76
2017-01-15T01:29:58.962Z,0.71
2017-01-15T01:31:03.196Z,0.68
2017-01-15T01:31:28.321Z,0.72
2017-01-15T01:32:48.941Z,0.57
2017-01-15T01:34:04.427Z,0.86
2017-01-15T01:35:01.939Z,0.88
2017-01-15T01:35:36.950Z,0.89
2017-01-15T01:36:59.618Z,0.9
2017-01-15T01:38:14.924Z,0.78
2017-01-15T01:38:36.944Z,0.92
2017-01-15T01:39:50.262Z,0.89
2017-01-15T01:41:14.766Z,1.06
2017-01-15T01:41:42.129Z,1.1
2017-01-15T01:42:55.058Z,1.18
2017-01-15T01:44:19.261Z,1.08
2017-01-15T01:45:17.970Z,1.14
2017-01-15T01:45:46.843Z,1.04
2017-01-15T01:47:20.863Z,1.01
2017-01-15T01:47:47.029Z,0.94
2017-01-15T01:49:11.288Z,0.86
2017-01-15T01:49:46.874Z,0.94
2017-01-15T01:51:19.628Z,0.9
2017-01-15T01:52:22.473Z,0.86
2017-01-15T01:52:58.784Z,0.92
2017-01-15T01:54:21.532Z,0.76
2017-01-15T01:55:35.000Z,0.88
2017-01-15T01:55:58.870Z,0.72
2017-01-15T01:57:25.135Z,0.88
2017-01-15T01:58:33.799Z,0.8
2017-01-15T01:59:11.938Z,0.85
2017-01-15T02:00:46.352Z,0.58
2017-01-15T02:01:48.889Z,0.7
2017-01-15T02:02:26.114Z,0.68
2017-01-15T02:03:49.781Z,0.7
2017-01-15T02:05:02.261Z,0.72
2017-01-15T02:05:26.031Z,0.65
2017-01-15T02:06:48.438Z,0.65
2017-01-15T02:08:03.213Z,0.71
2017-01-15T02:08:28.813Z,0.57
2017-01-15T02:09:54.521Z,0.58
2017-01-15T02:11:05.839Z,0.61
2017-01-15T02:11:35.866Z,0.52
2017-01-15T02:13:06.173Z,0.48
2017-01-15T02:14:12.071Z,0.6
2017-01-15T02:14:56.487Z,0.57
2017-01-15T02:16:34.217Z,0.6
2017-01-15T02:17:03.954Z,0.58
2017-01-15T02:18:41.292Z,0.52
2017-01-15T02:19:37.062Z,0.48
2017-01-15T02:20:25.141Z,0.48
2017-01-15T02:22:00.569Z,0.36
2017-01-15T02:22:23.876Z,0.45
2017-01-15T02:23:45.417Z,0.48
2017-01-15T02:24:59.914Z,0.45
2017-01-15T02:25:35.062Z,0.51
2017-01-15T02:27:12.411Z,0.45
2017-01-15T02:27:48.410Z,0.51
2017-01-15T02:28:45.653Z,0.36
2017-01-15T02:30:11.153Z,0.42
2017-01-15T02:30:46.389Z,0.39
2017-01-15T02:31:52.909Z,0.52
2017-01-15T02:33:12.060Z,0.42
2017-01-15T02:33:43.604Z,0.31
2017-01-15T02:35:04.279Z,0.27
2017-01-15T02:36:19.848Z,0.24
2017-01-15T02:36:43.639Z,0.33
2017-01-15T02:38:07.067Z,0.41
2017-01-15T02:39:16.858Z,0.28
2017-01-15T02:39:54.220Z,0.27
2017-01-15T02:41:19.023Z,0.05
2017-01-15T02:42:30.793Z,0.15
2017-01-15T02:42:54.241Z,0.23
2017-01-15T02:44:31.300Z,0.24
2017-01-15T02:44:54.258Z,0.27
2017-01-15T02:46:15.222Z,0.36
2017-01-15T02:47:32.748Z,0.15
2017-01-15T02:47:54.231Z,0.15
2017-01-15T02:49:20.852Z,0.24
2017-01-15T02:50:30.958Z,0.13
2017-01-15T02:51:08.260Z,0.1
2017-01-15T02:52:29.589Z,0.09
2017-01-15T02:53:45.713Z,0.18
2017-01-15T02:54:08.255Z,0.24
2017-01-15T02:55:33.366Z,0.2
2017-01-15T02:56:45.283Z,0.2
2017-01-15T02:57:14.190Z,0.27
2017-01-15T02:58:43.891Z,0.15
2017-01-15T02:59:50.834Z,0.31
2017-01-15T03:00:25.230Z,0.33
2017-01-15T03:01:47.043Z,0.25
2017-01-15T03:02:25.258Z,0.2
2017-01-15T03:03:49.779Z,0.25
2017-01-15T03:05:00.930Z,0.18
2017-01-15T03:05:25.241Z,0.21
2017-01-15T03:06:47.161Z,0.12
2017-01-15T03:08:01.784Z,0.2
2017-01-15T03:08:25.256Z,0.16
2017-01-15T03:09:50.669Z,0.05
2017-01-15T03:11:04.670Z,0.09
2017-01-15T03:11:31.626Z,0.16
2017-01-15T03:13:02.029Z,0.18
2017-01-15T03:14:08.112Z,0.2
2017-01-15T03:14:35.625Z,0.13
2017-01-15T03:16:00.092Z,0.12
2017-01-15T03:17:11.859Z,0.09
2017-01-15T03:17:36.043Z,0.07
2017-01-15T03:18:55.572Z,0.15
2017-01-15T03:20:12.227Z,0.05
2017-01-15T03:20:46.395Z,0.1
2017-01-15T03:21:56.200Z,-0.01
2017-01-15T03:23:13.391Z,0.06
2017-01-15T03:24:08.643Z,0
2017-01-15T03:24:55.425Z,-0.05
2017-01-15T03:26:32.718Z,0.12
2017-01-15T03:27:19.544Z,0.06
2017-01-15T03:28:14.772Z,0.03
2017-01-15T03:29:34.200Z,0.02
2017-01-15T03:30:43.383Z,0.13
2017-01-15T03:31:11.120Z,0.09
2017-01-15T03:32:35.882Z,0.06
2017-01-15T03:33:48.327Z,0.03
2017-01-15T03:34:11.867Z,0.06
2017-01-15T03:35:48.700Z,-0.04
2017-01-15T03:36:11.879Z,0.06
2017-01-15T03:37:36.447Z,0.05
2017-01-15T03:38:47.868Z,0
2017-01-15T03:39:12.563Z,0.1
2017-01-15T03:40:36.141Z,0.05
2017-01-15T03:41:12.578Z,0.12
2017-01-15T03:42:48.968Z,0.12
2017-01-15T03:43:12.566Z,0.15
2017-01-15T03:44:37.044Z,0.06
2017-01-15T03:45:49.020Z,0.12
2017-01-15T03:46:23.396Z,0.18
2017-01-15T03:47:47.019Z,0.03
2017-01-15T03:49:00.630Z,0.24
2017-01-15T03:49:25.349Z,0.09
2017-01-15T03:50:46.020Z,0.13
2017-01-15T03:52:02.443Z,0.15
2017-01-15T03:52:25.373Z,0.18
2017-01-15T03:53:50.151Z,0.13
2017-01-15T03:55:01.704Z,0.25
2017-01-15T03:55:25.383Z,0.27
2017-01-15T03:57:00.851Z,0.16
2017-01-15T03:58:02.752Z,0.15
2017-01-15T03:58:28.352Z,0.13
2017-01-15T03:59:53.744Z,0.21
2017-01-15T04:01:05.374Z,0.18
2017-01-15T04:01:35.463Z,0.23
2017-01-15T04:02:50.769Z,0.21
2017-01-15T04:04:11.816Z,0.15
2017-01-15T04:04:45.972Z,0.24
2017-01-15T04:05:55.213Z,0.18
2017-01-15T04:07:10.379Z,0.13
2017-01-15T04:07:35.465Z,0.16
2017-01-15T04:09:12.126Z,0.16
2017-01-15T04:09:58.185Z,0.06
2017-01-15T04:10:53.664Z,0.15
2017-01-15T04:12:22.171Z,0.16
2017-01-15T04:12:46.784Z,0.09
2017-01-15T04:14:22.354Z,0.15
2017-01-15T04:15:05.312Z,0
2017-01-15T04:16:35.888Z,0.02
2017-01-15T04:17:41.864Z,0.05
2017-01-15T04:18:17.091Z,0.05
2017-01-15T04:19:54.397Z,0.09
2017-01-15T04:20:21.379Z,-0.01
2017-01-15T04:21:43.728Z,-0.04
2017-01-15T04:22:44.869Z,-0.08
2017-01-15T04:24:07.306Z,-0.04
2017-01-15T04:24:30.786Z,0.02
2017-01-15T04:25:30.774Z,-0.05
2017-01-15T04:26:51.336Z,-0.12
2017-01-15T04:28:10.820Z,-0.12
2017-01-15T04:28:43.053Z,-0.09
2017-01-15T04:30:20.125Z,-0.11
2017-01-15T04:30:43.028Z,-0.06
2017-01-15T04:32:21.037Z,-0.08
2017-01-15T04:32:43.071Z,-0.11
2017-01-15T04:34:11.096Z,0.02
2017-01-15T04:35:19.599Z,-0.12
2017-01-15T04:35:49.987Z,-0.26
2017-01-15T04:37:08.315Z,-0.18
2017-01-15T04:38:27.066Z,-0.08
2017-01-15T04:39:01.722Z,-0.34
2017-01-15T04:40:00.286Z,-0.23
2017-01-15T04:41:19.134Z,-0.29
2017-01-15T04:42:27.140Z,-0.42
2017-01-15T04:42:50.016Z,-0.37
2017-01-15T04:44:25.746Z,-0.39
2017-01-15T04:45:11.821Z,-0.37
2017-01-15T04:46:00.855Z,-0.33
2017-01-15T04:46:59.807Z,-0.37
2017-01-15T04:48:35.582Z,-0.47
2017-01-15T04:49:12.487Z,-0.37
2017-01-15T04:50:35.369Z,-0.36
2017-01-15T04:51:49.977Z,-0.47
2017-01-15T04:52:12.490Z,-0.31
2017-01-15T04:53:32.263Z,-0.37
2017-01-15T04:54:22.468Z,-0.29
2017-01-15T04:55:27.417Z,-0.36
2017-01-15T04:56:49.264Z,-0.42
2017-01-15T04:57:49.312Z,-0.34
2017-01-15T04:58:19.888Z,-0.44
2017-01-15T04:59:55.763Z,-0.23
2017-01-15T05:00:19.881Z,-0.3
2017-01-15T05:01:32.284Z,-0.29
2017-01-15T05:02:53.632Z,-0.13
2017-01-15T05:03:19.894Z,-0.16
2017-01-15T05:04:48.258Z,-0.22
2017-01-15T05:05:55.305Z,-0.22
2017-01-15T05:06:32.983Z,-0.11
2017-01-15T05:08:05.757Z,-0.37
2017-01-15T05:08:33.030Z,-0.13
2017-01-15T05:09:55.560Z,-0.06
2017-01-15T05:10:43.141Z,-0.09
2017-01-15T05:12:20.058Z,-0.12
2017-01-15T05:12:44.485Z,-0.13
2017-01-15T05:14:22.499Z,-0.04
2017-01-15T05:15:19.551Z,-0.09
2017-01-15T05:15:52.348Z,-0.08
2017-01-15T05:17:29.391Z,-0.11
2017-01-15T05:17:52.364Z,0.06
2017-01-15T05:19:06.831Z,-0.01
2017-01-15T05:19:52.359Z,-0.04
2017-01-15T05:21:32.038Z,0.06
2017-01-15T05:21:52.371Z,0.06
2017-01-15T05:23:28.738Z,0
2017-01-15T05:23:54.129Z,0.02
2017-01-15T05:25:31.273Z,-0.13
2017-01-15T05:25:56.029Z,0.02
2017-01-15T05:27:20.915Z,0.07
2017-01-15T05:27:56.050Z,-0.08
2017-01-15T05:29:18.371Z,0.09
2017-01-15T05:30:13.069Z,0.02
2017-01-15T05:31:39.121Z,0.06
2017-01-15T05:32:45.434Z,0.06
2017-01-15T05:33:16.075Z,0.09
2017-01-15T05:34:42.638Z,-0.11
2017-01-15T05:35:53.339Z,0.06
2017-01-15T05:36:29.604Z,0
2017-01-15T05:38:07.701Z,-0.08
2017-01-15T05:38:50.293Z,0.02
2017-01-15T05:40:13.433Z,0.03
2017-01-15T05:41:30.259Z,-0.12
2017-01-15T05:42:01.706Z,0.06
2017-01-15T05:43:36.185Z,-0.04
2017-01-15T05:44:01.719Z,-0.06
2017-01-15T05:45:38.230Z,-0.12
2017-01-15T05:46:23.752Z,0
2017-01-15T05:48:01.891Z,-0.15
2017-01-15T05:48:24.849Z,-0.16
2017-01-15T05:49:41.746Z,-0.15
2017-01-15T05:51:01.674Z,-0.18
2017-01-15T05:51:35.440Z,-0.23
2017-01-15T05:53:00.341Z,-0.23
2017-01-15T05:53:35.418Z,-0.15
2017-01-15T05:54:35.450Z,-0.18
2017-01-15T05:56:11.985Z,-0.13
2017-01-15T05:56:35.449Z,-0.27
2017-01-15T05:58:10.137Z,-0.12
2017-01-15T05:58:35.470Z,-0.12
2017-01-15T06:00:07.098Z,-0.18
2017-01-15T06:00:35.428Z,-0.29
2017-01-15T06:01:53.021Z,-0.12
2017-01-15T06:03:13.126Z,-0.26
2017-01-15T06:03:51.376Z,-0.19
2017-01-15T06:05:31.282Z,-0.11
2017-01-15T06:05:51.367Z,-0.18
2017-01-15T06:07:28.737Z,-0.18
2017-01-15T06:07:51.341Z,-0.22
2017-01-15T06:09:29.199Z,-0.29
2017-01-15T06:10:05.174Z,-0.18
2017-01-15T06:11:40.953Z,-0.3
2017-01-15T06:12:16.434Z,-0.36
2017-01-15T06:13:42.997Z,-0.12
2017-01-15T06:14:16.434Z,-0.3
2017-01-15T06:15:52.915Z,-0.33
2017-01-15T06:16:16.434Z,-0.37
2017-01-15T06:17:52.736Z,-0.19
2017-01-15T06:18:39.236Z,-0.22
2017-01-15T06:19:37.859Z,-0.29
2017-01-15T06:20:50.523Z,-0.26
2017-01-15T06:21:40.372Z,-0.31
2017-01-15T06:23:02.049Z,-0.19
2017-01-15T06:24:13.281Z,-0.34
2017-01-15T06:24:37.286Z,-0.37
2017-01-15T06:26:13.820Z,-0.34
2017-01-15T06:26:37.308Z,-0.34
2017-01-15T06:28:14.371Z,-0.26
2017-01-15T06:29:14.151Z,-0.36
2017-01-15T06:29:49.561Z,-0.36
2017-01-15T06:31:16.649Z,-0.19
2017-01-15T06:31:49.583Z,-0.34
2017-01-15T06:32:49.565Z,-0.34
2017-01-15T06:34:26.176Z,-0.29
2017-01-15T06:35:11.316Z,-0.24
2017-01-15T06:36:47.537Z,-0.12
2017-01-15T06:37:11.286Z,-0.01
2017-01-15T06:38:43.704Z,-0.18
2017-01-15T06:39:11.307Z,-0.15
2017-01-15T06:40:33.242Z,0
2017-01-15T06:41:48.108Z,-0.11
2017-01-15T06:42:11.305Z,-0.08
2017-01-15T06:43:36.516Z,-0.04
2017-01-15T06:44:32.568Z,0.03
2017-01-15T06:45:31.269Z,-0.05
2017-01-15T06:46:56.076Z,0.05
2017-01-15T06:47:18.909Z,0.13
2017-01-15T06:48:55.840Z,0.02
2017-01-15T06:49:25.699Z,0.07
2017-01-15T06:50:53.918Z,0.03
2017-01-15T06:52:02.167Z,0.02
2017-01-15T06:52:35.473Z,0.1
2017-01-15T06:54:08.066Z,0
2017-01-15T06:55:11.522Z,0.03
2017-01-15T06:55:50.567Z,0.12
2017-01-15T06:57:15.889Z,0.12
2017-01-15T06:58:26.112Z,0.07
2017-01-15T06:59:02.560Z,0.27
2017-01-15T07:00:24.425Z,0.21
2017-01-15T07:01:39.759Z,0.05
2017-01-15T07:02:02.511Z,0.24
2017-01-15T07:03:28.727Z,0.21
2017-01-15T07:04:39.490Z,0.33
2017-01-15T07:05:03.964Z,0.23
2017-01-15T07:06:26.789Z,0.27
2017-01-15T07:07:23.161Z,0.27
2017-01-15T07:08:50.459Z,0.15
2017-01-15T07:09:14.170Z,0.21
2017-01-15T07:10:50.835Z,0.3
2017-01-15T07:11:14.199Z,0.18
2017-01-15T07:12:43.196Z,0.21
2017-01-15T07:13:50.555Z,0.42
2017-01-15T07:14:23.158Z,0.21
2017-01-15T07:15:23.123Z,0.2
2017-01-15T07:16:23.118Z,0.3
2017-01-15T07:17:59.445Z,0.25
2017-01-15T07:18:23.151Z,0.36
2017-01-15T07:19:48.487Z,0.34
2017-01-15T07:21:00.394Z,0.24
2017-01-15T07:21:23.147Z,0.43
2017-01-15T07:22:59.835Z,0.33
2017-01-15T07:23:47.273Z,0.41
2017-01-15T07:25:24.248Z,0.41
2017-01-15T07:25:46.961Z,0.31
2017-01-15T07:27:01.836Z,0.48
2017-01-15T07:28:15.617Z,0.18
2017-01-15T07:29:24.325Z,0.38
2017-01-15T07:29:46.995Z,0.38
2017-01-15T07:31:13.715Z,0.45
2017-01-15T07:32:24.050Z,0.34
2017-01-15T07:32:52.273Z,0.36
2017-01-15T07:34:28.682Z,0.25
2017-01-15T07:35:28.108Z,0.21
2017-01-15T07:36:13.134Z,0.36
2017-01-15T07:37:51.726Z,0.23
2017-01-15T07:38:13.157Z,0.21
2017-01-15T07:39:49.166Z,0.21
2017-01-15T07:40:40.251Z,0.21
2017-01-15T07:42:09.546Z,0.18
2017-01-15T07:42:49.327Z,0.25
2017-01-15T07:44:26.063Z,0.18
2017-01-15T07:44:49.307Z,0.2
2017-01-15T07:46:26.790Z,0.2
2017-01-15T07:46:49.266Z,0.2
2017-01-15T07:47:49.278Z,0.21
2017-01-15T07:49:07.860Z,0.12
2017-01-15T07:49:49.300Z,0.2
2017-01-15T07:51:25.551Z,0.1
2017-01-15T07:51:59.935Z,0.13
2017-01-15T07:52:55.686Z,0.18
2017-01-15T07:54:25.277Z,0.27
2017-01-15T07:54:49.253Z,0.13
2017-01-15T07:56:14.011Z,0.28
2017-01-15T07:56:49.261Z,0.15
2017-01-15T07:58:05.769Z,0.16
2017-01-15T07:59:26.229Z,0.24
2017-01-15T07:59:49.254Z,0.2
2017-01-15T08:01:20.061Z,0.13
2017-01-15T08:02:25.573Z,0.15
2017-01-15T08:03:21.344Z,0.27
2017-01-15T08:04:17.075Z,0.1
2017-01-15T08:05:43.745Z,0.36
2017-01-15T08:06:38.536Z,0.36
2017-01-15T08:07:34.303Z,0.33
2017-01-15T08:09:02.627Z,0.3
2017-01-15T08:09:25.213Z,0.39
2017-01-15T08:11:03.260Z,0.27
2017-01-15T08:11:33.589Z,0.45
2017-01-15T08:12:48.694Z,0.51
2017-01-15T08:14:00.372Z,0.52
2017-01-15T08:14:58.933Z,0.6
2017-01-15T08:15:55.896Z,0.52
2017-01-15T08:16:53.062Z,0.57
2017-01-15T08:18:05.197Z,0.67
2017-01-15T08:19:09.088Z,0.82
2017-01-15T08:20:11.278Z,0.75
2017-01-15T08:20:56.470Z,0.89
2017-01-15T08:22:33.105Z,0.96
2017-01-15T08:22:56.443Z,0.97
2017-01-15T08:24:20.466Z,1.06
2017-01-15T08:25:33.819Z,1.01
2017-01-15T08:26:32.015Z,1.15
2017-01-15T08:27:56.765Z,1.01
2017-01-15T08:28:28.976Z,1.07
2017-01-15T08:30:04.956Z,1.15
2017-01-15T08:30:48.665Z,1.08
2017-01-15T08:32:25.741Z,1.16
2017-01-15T08:32:51.452Z,1.25
2017-01-15T08:34:25.296Z,1.29
2017-01-15T08:35:28.395Z,1.25
2017-01-15T08:36:03.657Z,1.36
2017-01-15T08:37:28.207Z,1.32
2017-01-15T08:38:03.646Z,1.22
2017-01-15T08:39:03.659Z,1.26
2017-01-15T08:40:32.657Z,1.25
2017-01-15T08:41:04.119Z,1.26
2017-01-15T08:42:49.690Z,1.25
2017-01-15T08:43:31.433Z,1.4
2017-01-15T08:44:56.312Z,1.44
2017-01-15T08:45:22.393Z,1.42
2017-01-15T08:46:52.000Z,1.42
2017-01-15T08:48:05.493Z,1.42
2017-01-15T08:48:37.315Z,1.54
2017-01-15T08:50:14.398Z,1.54
2017-01-15T08:50:37.325Z,1.47
2017-01-15T08:52:13.438Z,1.61
2017-01-15T08:52:38.136Z,1.68
2017-01-15T08:53:55.723Z,1.6
2017-01-15T08:55:04.223Z,1.58
2017-01-15T08:55:38.125Z,1.72
2017-01-15T08:56:59.144Z,1.62
2017-01-15T08:58:14.119Z,1.65
2017-01-15T08:58:38.147Z,1.69
2017-01-15T09:00:06.386Z,1.73
2017-01-15T09:01:21.568Z,1.61
2017-01-15T09:02:20.373Z,1.46
2017-01-15T09:03:34.535Z,1.52
2017-01-15T09:04:23.975Z,1.69
2017-01-15T09:05:47.605Z,1.61
2017-01-15T09:06:55.220Z,1.68
2017-01-15T09:07:58.220Z,1.6
2017-01-15T09:09:06.170Z,1.52
2017-01-15T09:10:21.454Z,1.62
2017-01-15T09:11:27.058Z,1.54
2017-01-15T09:12:32.391Z,1.55
2017-01-15T09:13:45.754Z,1.54
2017-01-15T09:15:08.836Z,1.58
2017-01-15T09:16:33.768Z,1.43
2017-01-15T09:17:48.444Z,1.42
2017-01-15T09:19:12.721Z,1.43
2017-01-15T09:20:36.140Z,1.36
2017-01-15T09:21:54.738Z,1.5
2017-01-15T09:23:12.275Z,1.44
2017-01-15T09:24:38.231Z,1.4
2017-01-15T09:25:50.983Z,1.46
2017-01-15T09:27:16.070Z,1.37
2017-01-15T09:28:40.077Z,1.42
2017-01-15T09:30:05.136Z,1.5
2017-01-15T09:31:25.772Z,1.52
2017-01-15T09:32:44.252Z,1.43
2017-01-15T09:33:47.797Z,1.44
2017-01-15T09:35:03.544Z,1.42
2017-01-15T09:36:25.651Z,1.39
2017-01-15T09:37:47.093Z,1.32
2017-01-15T09:39:10.306Z,1.32
2017-01-15T09:40:33.646Z,1.29
2017-01-15T09:41:53.381Z,1.22
2017-01-15T09:43:17.661Z,1.26
2017-01-15T09:44:11.500Z,1.33
2017-01-15T09:45:38.111Z,1.29
2017-01-15T09:46:54.284Z,1.36
2017-01-15T09:48:20.380Z,1.4
2017-01-15T09:49:42.184Z,1.29
2017-01-15T09:51:05.888Z,1.32
2017-01-15T09:52:30.016Z,1.44
2017-01-15T09:53:46.325Z,1.52
2017-01-15T09:55:06.757Z,1.54
2017-01-15T09:56:32.201Z,1.58
2017-01-15T09:57:54.273Z,1.61
2017-01-15T09:59:17.424Z,1.64
2017-01-15T10:00:26.702Z,1.69
2017-01-15T10:01:50.112Z,1.65
2017-01-15T10:03:11.557Z,1.72
2017-01-15T10:04:30.850Z,1.78
2017-01-15T10:05:54.304Z,1.68
2017-01-15T10:07:16.925Z,1.6
2017-01-15T10:08:26.582Z,1.64
2017-01-15T10:09:47.154Z,1.52
2017-01-15T10:11:07.375Z,1.65
2017-01-15T10:12:33.743Z,1.57
2017-01-15T10:13:35.818Z,1.62
2017-01-15T10:14:48.302Z,1.47
2017-01-15T10:15:56.104Z,1.61
2017-01-15T10:17:10.975Z,1.68
2017-01-15T10:18:26.024Z,1.65
2017-01-15T10:19:41.168Z,1.69
2017-01-15T10:20:53.585Z,1.69
2017-01-15T10:22:08.185Z,1.65
2017-01-15T10:23:18.668Z,1.54
2017-01-15T10:24:26.855Z,1.62
2017-01-15T10:25:52.574Z,1.58
2017-01-15T10:27:10.479Z,1.73
2017-01-15T10:28:38.934Z,1.78
2017-01-15T10:30:01.595Z,1.75
2017-01-15T10:31:29.756Z,1.83
2017-01-15T10:32:53.023Z,1.87
2017-01-15T10:34:19.199Z,1.93
2017-01-15T10:35:26.487Z,1.89
2017-01-15T10:36:51.810Z,2.06
2017-01-15T10:38:15.131Z,2.04
2017-01-15T10:39:36.603Z,2.08
2017-01-15T10:40:57.598Z,2.02
2017-01-15T10:42:15.275Z,1.98
2017-01-15T10:43:29.332Z,2.04
2017-01-15T10:44:55.457Z,2.17
2017-01-15T10:45:54.241Z,2.15
2017-01-15T10:47:16.698Z,2.16
2017-01-15T10:48:19.601Z,2.3
2017-01-15T10:49:39.976Z,2.2
2017-01-15T10:50:55.555Z,2.44
2017-01-15T10:52:17.625Z,2.51
2017-01-15T10:53:44.440Z,2.4
2017-01-15T10:54:57.201Z,2.34
2017-01-15T10:56:22.471Z,2.48
2017-01-15T10:57:44.412Z,2.63
2017-01-15T10:59:09.319Z,2.53
2017-01-15T11:00:33.358Z,2.69
2017-01-15T11:01:56.815Z,2.87
2017-01-15T11:03:05.184Z,2.88
2017-01-15T11:04:13.091Z,2.89
2017-01-15T11:04:55.700Z,2.89
2017-01-15T11:06:23.303Z,2.97
2017-01-15T11:07:35.836Z,3.1
2017-01-15T11:08:43.478Z,3.1
2017-01-15T11:10:01.575Z,3.15
2017-01-15T11:11:03.541Z,3.23
2017-01-15T11:12:26.518Z,3.27
2017-01-15T11:13:40.091Z,3.25
2017-01-15T11:15:05.517Z,3.23
2017-01-15T11:16:23.151Z,3.34
2017-01-15T11:17:47.204Z,3.28
2017-01-15T11:19:07.655Z,3.3
2017-01-15T11:20:32.230Z,3.33
2017-01-15T11:21:53.185Z,3.33
2017-01-15T11:23:17.091Z,3.28
2017-01-15T11:24:37.837Z,3.36
2017-01-15T11:25:37.435Z,3.46
2017-01-15T11:27:02.765Z,3.39
2017-01-15T11:28:26.387Z,3.42
2017-01-15T11:29:45.853Z,3.57
2017-01-15T11:30:42.068Z,3.53
2017-01-15T11:31:53.114Z,3.6
2017-01-15T11:33:03.824Z,3.52
2017-01-15T11:34:23.033Z,3.57
2017-01-15T11:35:04.173Z,3.71
2017-01-15T11:36:29.331Z,3.65
2017-01-15T11:37:33.216Z,3.61
2017-01-15T11:38:47.858Z,3.6
2017-01-15T11:39:40.463Z,3.76
2017-01-15T11:41:05.972Z,3.67
2017-01-15T11:42:23.163Z,3.68
2017-01-15T11:43:45.362Z,3.8
2017-01-15T11:44:50.658Z,3.85
2017-01-15T11:46:09.102Z,3.96
2017-01-15T11:47:21.524Z,3.86
2017-01-15T11:47:57.139Z,3.92
2017-01-15T11:49:29.399Z,3.85
2017-01-15T11:50:55.299Z,4.12
2017-01-15T11:52:09.672Z,4.16
2017-01-15T11:53:35.559Z,4.14
2017-01-15T11:54:54.208Z,4.01
2017-01-15T11:55:32.673Z,4.14
2017-01-15T11:57:08.445Z,4.15
2017-01-15T11:57:32.535Z,4.22
2017-01-15T11:58:59.381Z,4.19
2017-01-15T11:59:32.735Z,4.16
2017-01-15T12:00:37.141Z,4.19
2017-01-15T12:01:32.706Z,4.04
2017-01-15T12:02:32.539Z,4.26
2017-01-15T12:03:33.193Z,4.19
2017-01-15T12:04:32.556Z,4.28
2017-01-15T12:05:32.548Z,4.1
2017-01-15T12:06:32.684Z,4.28
2017-01-15T12:07:32.682Z,4.22
2017-01-15T12:08:32.585Z,4.33
2017-01-15T12:09:32.567Z,4.37
2017-01-15T12:10:32.756Z,4.28
2017-01-15T12:11:32.890Z,4.14
2017-01-15T12:12:32.683Z,4.24
2017-01-15T12:13:32.538Z,4.16
2017-01-15T12:14:32.525Z,4.25
2017-01-15T12:15:32.578Z,4.28
2017-01-15T12:16:32.522Z,4.29
2017-01-15T12:17:32.516Z,4.08
2017-01-15T12:18:32.558Z,4.29
2017-01-15T12:19:32.571Z,4.34
2017-01-15T12:20:32.549Z,4.26
2017-01-15T12:21:32.530Z,4.34
2017-01-15T12:22:32.577Z,4.25
2017-01-15T12:23:32.576Z,4.33
2017-01-15T12:24:34.689Z,4.37
2017-01-15T12:25:32.557Z,4.34
2017-01-15T12:26:32.570Z,4.29
2017-01-15T12:27:32.524Z,4.37
2017-01-15T12:28:32.536Z,4.26
2017-01-15T12:29:32.528Z,4.4
2017-01-15T12:30:32.541Z,4.28
2017-01-15T12:31:32.581Z,4.36
2017-01-15T12:32:32.523Z,4.37
2017-01-15T12:33:32.553Z,4.39
2017-01-15T12:34:32.566Z,4.33
2017-01-15T12:35:32.548Z,4.29
2017-01-15T12:36:34.477Z,4.28
2017-01-15T12:37:34.825Z,4.26
2017-01-15T12:38:32.517Z,4.25
2017-01-15T12:39:32.547Z,4.12
2017-01-15T12:40:32.583Z,4.03
2017-01-15T12:41:32.564Z,4.1
2017-01-15T12:42:32.559Z,4.16
2017-01-15T12:43:33.148Z,4.01
2017-01-15T12:44:32.544Z,3.97
2017-01-15T12:45:32.572Z,4
2017-01-15T12:46:32.551Z,3.92
2017-01-15T12:47:32.551Z,3.97
2017-01-15T12:48:32.563Z,3.94
2017-01-15T12:49:32.568Z,3.94
2017-01-15T12:50:32.552Z,3.92
2017-01-15T12:51:32.541Z,3.83
2017-01-15T12:52:32.571Z,3.79
2017-01-15T12:53:32.560Z,3.83
2017-01-15T12:54:32.547Z,3.8
2017-01-15T12:55:32.580Z,3.88
2017-01-15T12:56:32.544Z,3.83
2017-01-15T12:57:32.541Z,3.71
2017-01-15T12:58:32.542Z,3.82
2017-01-15T12:59:32.569Z,3.86
2017-01-15T13:00:32.560Z,3.71
2017-01-15T13:01:32.588Z,3.9
2017-01-15T13:02:32.530Z,3.79
2017-01-15T13:03:34.174Z,3.88
2017-01-15T13:04:32.577Z,3.85
2017-01-15T13:05:32.565Z,3.85
2017-01-15T13:06:32.624Z,3.82
2017-01-15T13:07:32.550Z,3.92
2017-01-15T13:08:32.544Z,3.94
2017-01-15T13:09:32.578Z,3.78
2017-01-15T13:10:32.563Z,3.97
2017-01-15T13:11:32.561Z,3.8
2017-01-15T13:12:32.571Z,3.82
2017-01-15T13:13:32.560Z,3.78
2017-01-15T13:14:32.554Z,3.78
2017-01-15T13:15:32.570Z,3.8
2017-01-15T13:16:32.607Z,3.82
2017-01-15T13:17:32.556Z,3.64
2017-01-15T13:18:32.580Z,3.6
2017-01-15T13:19:32.558Z,3.58
2017-01-15T13:20:32.712Z,3.64
2017-01-15T13:21:32.549Z,3.6
2017-01-15T13:22:32.591Z,3.46
2017-01-15T13:23:32.573Z,3.36
2017-01-15T13:24:32.568Z,3.4
2017-01-15T13:25:32.560Z,3.36
2017-01-15T13:26:33.274Z,3.27
2017-01-15T13:27:32.563Z,3.25
2017-01-15T13:28:32.559Z,3.24
2017-01-15T13:29:32.657Z,3.24
2017-01-15T13:30:32.597Z,3.21
2017-01-15T13:31:32.558Z,3.24
2017-01-15T13:32:32.578Z,3.21
2017-01-15T13:33:32.579Z,3.1
2017-01-15T13:34:32.600Z,3.07
2017-01-15T13:35:32.572Z,3
2017-01-15T13:36:32.556Z,3.05
2017-01-15T13:37:32.552Z,3.05
2017-01-15T13:38:32.608Z,3
2017-01-15T13:39:32.579Z,2.92
2017-01-15T13:40:32.612Z,3.05
2017-01-15T13:41:32.686Z,3.02
2017-01-15T13:42:32.673Z,2.91
2017-01-15T13:43:32.596Z,2.95
2017-01-15T13:44:32.598Z,3.09
2017-01-15T13:45:32.587Z,2.98
2017-01-15T13:46:32.566Z,3.03
2017-01-15T13:47:32.646Z,2.95
2017-01-15T13:48:32.622Z,2.92
2017-01-15T13:49:32.587Z,3.02
2017-01-15T13:50:32.584Z,3.07
2017-01-15T13:51:32.594Z,2.92
2017-01-15T13:52:32.578Z,2.95
2017-01-15T13:53:32.580Z,3.03
2017-01-15T13:54:32.603Z,2.91
2017-01-15T13:55:32.588Z,2.97
2017-01-15T13:56:32.580Z,2.94
2017-01-15T13:57:32.593Z,2.89
2017-01-15T13:58:32.606Z,2.95
2017-01-15T13:59:32.593Z,2.77
2017-01-15T14:00:32.641Z,2.97
2017-01-15T14:01:32.612Z,2.95
2017-01-15T14:02:32.725Z,2.79
2017-01-15T14:03:32.897Z,2.92
2017-01-15T14:04:32.645Z,2.92
2017-01-15T14:05:32.666Z,2.92
2017-01-15T14:06:32.690Z,2.79
2017-01-15T14:07:32.618Z,2.79
2017-01-15T14:08:32.667Z,2.89
2017-01-15T14:09:32.679Z,2.81
2017-01-15T14:10:34.108Z,2.85
2017-01-15T14:11:32.615Z,2.88
2017-01-15T14:12:32.593Z,2.94
2017-01-15T14:13:32.637Z,2.82